• Join FlightAware (Why Join?)
  • Login
  • US Flag 
11:07PM EDT


 

Airport Tracker/Info


-or-


 

Live Flight TrackerFlight Track Log ✈ N3077U ✈ 14-Nov-2013 ✈ KMLU - KADS

Flight Track Log - Related Links

Times and Time Zones

All times are in EST time to prevent confusion due to time zone crossing. See the N3077U flight status page for this flight to view local times or setup timezone preferences in your user account.

Time Position Orientation Groundspeed Altitude Reporting Facility
EST Latitude Longitude Course Direction KTS MPH feet Rate Location/Type
05:15PM 32.5460 -92.3466 266° West  Level Estimated
05:16PM 32.5364 -92.3974 257° West  Level FlightAware Approximate
05:17PM 32.5268 -92.4481 257° West  Level FlightAware Approximate
05:18PM 32.5172 -92.4987 257° West  Level FlightAware Approximate
05:19PM 32.5076 -92.5494 257° West  Level FlightAware Approximate
05:20PM 32.5140 -92.6008 266° West  Level Estimated
05:21PM 32.5082 -92.6523 262° West  Level FlightAware Approximate
05:22PM 32.5024 -92.7038 262° West  Level FlightAware Approximate
05:23PM 32.4966 -92.7553 262° West  Level FlightAware Approximate
05:23PM 32.4744 -92.7153 262° West 131 151 6,000  Level Fort Worth Center
05:24PM 32.4908 -92.8068 262° West  Level FlightAware Approximate
05:24PM 32.4617 -92.7650 253° West 168 193 6,000  Level Fort Worth Center
05:25PM 32.4849 -92.8583 262° West  Level FlightAware Approximate
05:25PM 32.4550 -92.8122 261° West 161 185 6,000  Level Fort Worth Center
05:26PM 32.4790 -92.9097 262° West  Level FlightAware Approximate
05:26PM 32.4531 -92.8764 268° West 162 186 6,000  Level Fort Worth Center
05:27PM 32.4731 -92.9612 262° West  Level FlightAware Approximate
05:27PM 32.4489 -92.9306 265° West 163 188 6,000  Level Fort Worth Center
05:28PM 32.4672 -93.0126 262° West  Level FlightAware Approximate
05:28PM 32.4422 -92.9828 261° West 163 188 6,000  Level Fort Worth Center
05:29PM 32.4439 -93.0294 272° West 160 184 6,000  Level Fort Worth Center
05:30PM 32.4375 -93.0839 262° West 161 185 6,000  Level Fort Worth Center
05:31PM 32.4353 -93.1381 267° West 161 185 6,000  Level Fort Worth Center
05:32PM 32.4286 -93.1950 262° West 160 184 6,000  Level Fort Worth Center
05:33PM 32.4264 -93.2467 267° West 160 184 6,000  Level Fort Worth Center
05:34PM 32.4217 -93.2986 264° West 161 185 6,000  Level Fort Worth Center
05:35PM 32.4192 -93.3503 267° West 162 186 6,000  Level Fort Worth Center
05:36PM 32.4147 -93.4022 264° West 161 185 6,000  Level Fort Worth Center
05:37PM 32.4122 -93.4564 267° West 160 184 6,000  Level Fort Worth Center
05:38PM 32.4075 -93.5108 264° West 163 188 6,000  Level Fort Worth Center
05:39PM 32.4031 -93.5675 265° West 163 188 6,000  Level Fort Worth Center
05:40PM 32.3983 -93.6194 264° West 162 186 6,000  Level Fort Worth Center
05:41PM 32.4000 -93.6736 272° West 160 184 6,000  Level Fort Worth Center
05:42PM 32.4017 -93.7250 272° West 161 185 6,000  Level Fort Worth Center
05:43PM 32.4031 -93.7792 272° West 161 185 6,000  Level Fort Worth Center
05:44PM 32.4025 -93.8333 269° West 164 189 6,000  Level Fort Worth Center
05:45PM 32.4042 -93.8875 272° West 164 189 6,000  Level Fort Worth Center
05:46PM 32.4036 -93.9439 269° West 163 188 6,000  Level Fort Worth Center
05:47PM 32.4072 -93.9981 275° West 162 186 6,000  Level Fort Worth Center
05:48PM 32.4064 -94.0497 269° West 161 185 6,000  Level Fort Worth Center
05:49PM 32.4078 -94.1039 272° West 162 186 6,000  Level Fort Worth Center
05:51PM 32.4034 -94.1768 266° West  Level FlightAware Approximate
05:58PM 32.4081 -94.5217 273° West  Level FlightAware Approximate
05:59PM 32.4100 -94.5709 273° West  Level FlightAware Approximate
06:00PM 32.4118 -94.6202 273° West  Level FlightAware Approximate
06:01PM 32.4137 -94.6694 273° West  Level FlightAware Approximate
06:02PM 32.4155 -94.7186 273° West  Level FlightAware Approximate
06:03PM 32.4135 -94.7675 258° West  Level FlightAware Approximate
06:04PM 32.4048 -94.8157 258° West  Level FlightAware Approximate
06:05PM 32.3960 -94.8638 258° West  Level FlightAware Approximate
06:06PM 32.3872 -94.9120 258° West  Level FlightAware Approximate
06:07PM 32.3768 -94.9596 254° West  Level FlightAware Approximate
06:07PM 32.4456 -95.0306 260° West 185 213 6,000  Level Fort Worth Center
06:08PM 32.3656 -95.0071 260° West  Level FlightAware Approximate
06:08PM 32.4486 -95.0819 274° West 176 203 6,000  Level Fort Worth Center
06:09PM 32.3582 -95.0555 260° West  Level FlightAware Approximate
06:09PM 32.4558 -95.1311 280° West 170 196 6,000  Level Fort Worth Center
06:10PM 32.3507 -95.1040 260° West  Level FlightAware Approximate
06:10PM 32.4883 -95.2067 297° West 165 190 6,100  Level Fort Worth Center
06:11PM 32.3433 -95.1524 260° West  Level FlightAware Approximate
06:11PM 32.4639 -95.2344 224° Southwest 182 209 6,000  Level Fort Worth Center
06:12PM 32.4711 -95.2858 279° West 177 204 6,000 -60 Level Fort Worth Center
06:13PM 32.4761 -95.3447 276° West 171 197 5,900  Descending Fort Worth Center
06:14PM 32.4811 -95.3892 278° West 160 184 6,000  Climbing Fort Worth Center
06:15PM 32.4881 -95.4406 279° West 160 184 5,900 -60 Descending Fort Worth Center
06:16PM 32.4908 -95.4897 274° West 160 184 5,900  Level Fort Worth Center
06:17PM 32.4917 -95.5439 271° West 160 184 6,000  Climbing Fort Worth Center
06:18PM 32.4989 -95.5931 280° West 160 184 5,900  Descending Fort Worth Center
06:19PM 32.5058 -95.6519 278° West 160 184 6,000  Climbing Fort Worth Center
06:20PM 32.5086 -95.6964 274° West 160 184 5,900 -60 Descending Fort Worth Center
06:21PM 32.5136 -95.7528 276° West 160 184 5,900  Level Fort Worth Center
06:22PM 32.5183 -95.7972 277° West 160 184 5,900  Level Fort Worth Center
06:23PM 32.5231 -95.8561 275° West 160 184 5,900  Level Fort Worth Center
06:24PM 32.5278 -95.9031 277° West 160 184 5,900  Level Fort Worth Center
06:25PM 32.5328 -95.9594 276° West 160 184 5,900  Level Fort Worth Center
06:26PM 32.5353 -96.0064 274° West 160 184 6,000  Climbing Fort Worth Center
06:27PM 32.5403 -96.0631 276° West 160 184 5,900 -60 Descending Fort Worth Center
06:28PM 32.5447 -96.1097 276° West 160 184 5,900  Level Fort Worth Center
06:29PM 32.5494 -96.1664 276° West 160 184 5,900  Level Fort Worth Center
06:30PM 32.5542 -96.2131 277° West 160 184 5,900  Level Fort Worth Center
06:31PM 32.5589 -96.2647 276° West 160 184 6,000  Climbing Fort Worth Center
06:32PM 32.5633 -96.3117 276° West 160 184 6,000 -300 Level Fort Worth Center
06:33PM 32.5764 -96.3681 285° West 166 191 5,400 -600 Descending Fort Worth Center
06:34PM 32.6144 -96.4097 317° Northwest 183 211 4,900 -300 Descending Fort Worth Center
06:35PM 32.6481 -96.4561 311° West 188 216 4,900  Level Fort Worth Center
06:36PM 32.6631 -96.5028 291° West 165 190 5,000 -480 Climbing Fort Worth Center
06:37PM 32.7094 -96.5467 321° Northwest 177 204 4,000 -1,020 Descending Fort Worth Center
06:38PM 32.7514 -96.5786 327° Northwest 202 232 3,000 -540 Descending Fort Worth Center
06:39PM 32.7994 -96.6150 328° Northwest 192 221 3,000 -60 Level Fort Worth Center
06:40PM 32.8350 -96.6322 338° Northwest 167 192 2,900 -60 Descending Fort Worth Center
06:41PM 32.8811 -96.6467 345° North 155 178 2,900  Level Fort Worth Center
06:42PM 32.9333 -96.6667 342° North 150 173 3,000  Climbing Dallas / Fort Worth TRACON
06:43PM 32.9667 -96.7000 320° Northwest 150 173 3,000 -300 Level Dallas / Fort Worth TRACON
06:44PM 32.9833 -96.7500 292° West 170 196 2,500 -540 Descending Dallas / Fort Worth TRACON
06:45PM 33.0167 -96.7833 320° Northwest 182 209 2,000 -240 Descending Dallas / Fort Worth TRACON
06:46PM 33.0167 -96.8333 270° West 160 184 2,100 -60 Climbing Dallas / Fort Worth TRACON
06:47PM 33.0167 -96.8500 270° West 92 106 1,900 -480 Descending Dallas / Fort Worth TRACON
06:48PM 33.0000 -96.8500 180° South 98 113 1,200 -720 Descending Dallas / Fort Worth TRACON
06:50PM 32.9667 -96.8333 320° Northwest  Level FlightAware Approximate
06:57PM 32.9686 -96.8364 320° Northwest  Level Estimated
06:58PM 32.9667 -96.8333 320° Northwest  Level FlightAware Approximate